This is the latest recevied weather packets stored in our database for station/object WA6ODQ-13. If no packets are shown the sender has not sent any weather packets the latest 10 day(s).
| Time | Temp. | Humidity | Pressure | Rain* | Wind** | Luminosity | Snow |
|---|---|---|---|---|---|---|---|
| 1778015402 | 17.78° C | 76% | 1013.9 hPa | 0 mm | - | 209 W/m² | - |
| 1778015099 | 17.78° C | 76% | 1014 hPa | 0 mm | - | 588 W/m² | - |
| 1778014796 | 18.33° C | 75% | 1013.9 hPa | 0 mm | - | 129 W/m² | - |
| 1778014495 | 18.33° C | 75% | 1013.9 hPa | 0 mm | - | 97 W/m² | - |
| 1778014191 | 18.89° C | 72% | 1014.1 hPa | 0 mm | - | 95 W/m² | - |
| 1778013889 | 18.89° C | 72% | 1013.9 hPa | 0 mm | - | 121 W/m² | - |
| 1778013586 | 18.89° C | 71% | 1014 hPa | 0 mm | - | 161 W/m² | - |
| 1778013282 | 18.89° C | 73% | 1014 hPa | 0 mm | - | 161 W/m² | - |
| 1778012979 | 18.89° C | 74% | 1013.9 hPa | 0 mm | - | 169 W/m² | - |
| 1778012675 | 18.89° C | 74% | 1013.9 hPa | 0 mm | - | 391 W/m² | - |
| 1778012372 | 19.44° C | 74% | 1013.9 hPa | 0 mm | - | 893 W/m² | - |
| 1778012069 | 19.44° C | 73% | 1014 hPa | 0 mm | - | 223 W/m² | - |
| 1778011767 | 19.44° C | 76% | 1014 hPa | 0 mm | - | 466 W/m² | - |
| 1778011464 | 18.33° C | 76% | 1014 hPa | 0 mm | - | 555 W/m² | - |
| 1778011159 | 18.33° C | 75% | 1014.3 hPa | 0 mm | - | 416 W/m² | - |
| 1778010857 | 18.89° C | 77% | 1014.1 hPa | 0 mm | - | 333 W/m² | - |
| 1778010554 | 18.33° C | 76% | 1014.2 hPa | 0 mm | - | 868 W/m² | - |
| 1778010252 | 17.78° C | 79% | 1014.1 hPa | 0 mm | - | 473 W/m² | - |
| 1778009951 | 17.22° C | 79% | 1014.3 hPa | 0 mm | - | 313 W/m² | - |
| 1778009649 | 17.22° C | 80% | 1014.2 hPa | 0 mm | - | 265 W/m² | - |
| 1778009347 | 16.67° C | 80% | 1014.3 hPa | 0 mm | - | 247 W/m² | - |
| 1778009045 | 16.67° C | 81% | 1014.2 hPa | 0 mm | - | 249 W/m² | - |
| 1778008742 | 16.11° C | 83% | 1014.3 hPa | 0 mm | - | 234 W/m² | - |
| 1778008441 | 15.56° C | 84% | 1014.3 hPa | 0 mm | - | 101 W/m² | - |
| 1778008137 | 16.11° C | 83% | 1014.4 hPa | 0 mm | - | 84 W/m² | - |
* Rain latest hour (hover to see other rain measurements)
** Current wind speed in m/s (hover to see current wind gust speed)